createdAt,value
2023-12-12T03:16:46.985Z,12.77
2023-12-12T03:19:15.029Z,13.85
2023-12-12T03:21:42.907Z,15.95
2023-12-12T03:24:10.693Z,12.50
2023-12-12T03:26:38.614Z,12.20
2023-12-12T03:29:07.302Z,13.75
2023-12-12T03:31:35.538Z,12.35
2023-12-12T03:34:03.658Z,12.00
2023-12-12T03:36:31.539Z,12.75
2023-12-12T03:38:59.541Z,14.60
2023-12-12T03:41:29.686Z,11.55
2023-12-12T03:43:57.574Z,11.40
2023-12-12T03:46:25.349Z,11.27
2023-12-12T03:48:53.345Z,12.68
2023-12-12T03:51:21.348Z,12.02
2023-12-12T03:53:49.612Z,11.07
2023-12-12T03:56:17.523Z,9.85
2023-12-12T03:58:46.391Z,10.60
2023-12-12T04:01:14.621Z,10.43
2023-12-12T04:03:42.553Z,12.48
2023-12-12T04:06:10.468Z,12.13
2023-12-12T04:08:38.816Z,12.23
2023-12-12T04:11:06.851Z,11.32
2023-12-12T04:13:34.800Z,10.85
2023-12-12T04:16:02.730Z,10.10
2023-12-12T04:18:30.632Z,10.05
2023-12-12T04:20:58.543Z,10.95
2023-12-12T04:23:26.476Z,9.55
2023-12-12T04:25:54.355Z,9.77
2023-12-12T04:28:22.366Z,12.13
2023-12-12T04:30:50.208Z,14.07
2023-12-12T04:33:18.505Z,12.93
2023-12-12T04:35:46.339Z,11.93
2023-12-12T04:38:14.283Z,11.40
2023-12-12T04:40:42.086Z,10.07
2023-12-12T04:43:10.370Z,10.98
2023-12-12T04:45:38.484Z,13.93
2023-12-12T04:48:07.013Z,11.55
2023-12-12T04:50:35.052Z,11.07
2023-12-12T04:53:02.783Z,10.10
2023-12-12T04:55:30.758Z,11.88
2023-12-12T04:57:58.782Z,11.48
2023-12-12T05:00:26.729Z,9.60
2023-12-12T05:02:54.578Z,10.45
2023-12-12T05:05:22.445Z,10.35
2023-12-12T05:07:50.351Z,10.32
2023-12-12T05:10:18.413Z,12.95
2023-12-12T05:12:46.293Z,10.43
2023-12-12T05:15:14.158Z,12.80
2023-12-12T05:17:42.761Z,11.85
2023-12-12T05:20:13.079Z,12.10
2023-12-12T05:22:41.497Z,13.90
2023-12-12T05:25:09.445Z,13.13
2023-12-12T05:27:37.978Z,11.50
2023-12-12T05:30:06.651Z,10.18
2023-12-12T05:32:34.898Z,11.57
2023-12-12T05:35:02.933Z,11.00
2023-12-12T05:37:31.692Z,11.73
2023-12-12T05:39:59.710Z,10.55
2023-12-12T05:42:27.631Z,11.00
2023-12-12T05:44:55.390Z,10.30
2023-12-12T05:47:23.372Z,11.18
2023-12-12T05:49:51.250Z,10.95
2023-12-12T05:52:19.257Z,11.55
2023-12-12T05:54:47.766Z,11.88
2023-12-12T05:57:15.691Z,11.00
2023-12-12T05:59:43.627Z,12.15
2023-12-12T06:02:11.494Z,10.25
2023-12-12T06:04:40.427Z,12.70
2023-12-12T06:07:08.164Z,12.93
2023-12-12T06:09:36.040Z,11.23
2023-12-12T06:12:04.060Z,12.63
2023-12-12T06:14:32.019Z,11.82
2023-12-12T06:16:59.941Z,10.32
2023-12-12T06:19:28.158Z,12.48
2023-12-12T06:21:56.120Z,13.60
2023-12-12T06:24:24.268Z,9.70
2023-12-12T06:26:52.260Z,10.52
2023-12-12T06:29:20.197Z,10.55
2023-12-12T06:31:48.296Z,12.57
2023-12-12T06:34:16.896Z,13.55
2023-12-12T06:36:44.890Z,12.57
2023-12-12T06:39:12.771Z,13.10
2023-12-12T06:41:40.563Z,11.77
2023-12-12T06:44:08.691Z,10.48
2023-12-12T06:46:38.301Z,12.15
2023-12-12T06:49:09.105Z,12.73
2023-12-12T06:51:37.257Z,11.68
2023-12-12T06:54:05.176Z,11.32
2023-12-12T06:56:33.253Z,12.02
2023-12-12T06:59:01.415Z,12.50
2023-12-12T07:01:29.345Z,11.60
2023-12-12T07:03:59.096Z,11.88
2023-12-12T07:06:27.085Z,13.07
2023-12-12T07:08:55.586Z,13.10
2023-12-12T07:11:24.569Z,12.40
2023-12-12T07:13:52.993Z,16.27
2023-12-12T07:16:22.329Z,12.25
2023-12-12T07:18:50.798Z,11.52
2023-12-12T07:21:18.730Z,12.38
2023-12-12T07:23:48.630Z,12.07
2023-12-12T07:26:22.414Z,13.82
2023-12-12T07:28:50.971Z,13.52
2023-12-12T07:31:20.185Z,11.27
2023-12-12T07:33:48.200Z,12.07
2023-12-12T07:36:16.041Z,14.38
2023-12-12T07:38:44.108Z,11.52
2023-12-12T07:41:12.306Z,13.07
2023-12-12T07:43:40.351Z,11.20
2023-12-12T07:46:08.368Z,12.07
2023-12-12T07:48:36.343Z,11.15
2023-12-12T07:51:04.850Z,11.57
2023-12-12T07:53:32.828Z,10.60
2023-12-12T07:56:00.885Z,12.15
2023-12-12T07:58:28.943Z,12.93
2023-12-12T08:00:56.876Z,10.43
2023-12-12T08:03:25.278Z,12.20
2023-12-12T08:05:53.699Z,11.55
2023-12-12T08:08:21.553Z,12.35
2023-12-12T08:10:49.595Z,12.38
2023-12-12T08:13:17.629Z,13.23
2023-12-12T08:15:45.982Z,14.13
2023-12-12T08:18:13.957Z,12.77
2023-12-12T08:20:42.187Z,12.93
2023-12-12T08:23:11.015Z,13.10
2023-12-12T08:25:38.969Z,12.23
2023-12-12T08:28:06.981Z,13.13
2023-12-12T08:30:37.096Z,13.55
2023-12-12T08:33:05.242Z,12.40
2023-12-12T08:35:33.343Z,13.00
2023-12-12T08:38:01.220Z,12.00
2023-12-12T08:40:29.481Z,10.95
2023-12-12T08:42:57.492Z,10.07
2023-12-12T08:45:25.449Z,11.88
2023-12-12T08:47:53.324Z,11.15
2023-12-12T08:50:21.566Z,10.93
2023-12-12T08:52:49.509Z,10.95
2023-12-12T08:55:17.562Z,10.25
2023-12-12T08:57:49.981Z,11.10
2023-12-12T09:02:46.969Z,12.77
2023-12-12T09:05:14.796Z,13.48
2023-12-12T09:07:42.945Z,11.70
2023-12-12T09:10:11.499Z,11.68
2023-12-12T09:12:39.487Z,10.52
2023-12-12T09:15:07.674Z,11.68
2023-12-12T09:17:36.010Z,9.65
2023-12-12T09:20:04.570Z,11.20
2023-12-12T09:22:33.289Z,11.30
2023-12-12T09:25:01.566Z,11.40
2023-12-12T09:27:29.681Z,11.32
2023-12-12T09:29:57.849Z,10.52
2023-12-12T09:32:25.914Z,11.45
2023-12-12T09:34:53.971Z,10.45
2023-12-12T09:37:24.020Z,10.82
2023-12-12T09:39:51.977Z,10.07
2023-12-12T09:42:25.187Z,8.57
2023-12-12T09:45:04.365Z,10.52
2023-12-12T09:47:33.483Z,11.93
2023-12-12T09:50:02.422Z,12.48
2023-12-12T09:52:33.545Z,10.95
2023-12-12T09:55:01.747Z,10.10
2023-12-12T09:57:30.896Z,7.80
2023-12-12T09:59:59.573Z,10.57
2023-12-12T10:02:37.506Z,10.90
2023-12-12T10:05:06.812Z,10.20
2023-12-12T10:07:36.232Z,9.68
2023-12-12T10:10:08.837Z,9.40
2023-12-12T10:12:36.824Z,8.85
2023-12-12T10:15:05.444Z,9.75
2023-12-12T10:17:40.179Z,11.07
2023-12-12T10:20:08.977Z,10.05
2023-12-12T10:22:37.103Z,8.65
2023-12-12T10:25:12.363Z,9.70
2023-12-12T10:27:44.415Z,9.07
2023-12-12T10:30:15.857Z,8.45
2023-12-12T10:32:44.848Z,8.70
2023-12-12T10:35:12.863Z,9.02
2023-12-12T10:37:40.792Z,9.02
2023-12-12T10:40:19.799Z,8.43
2023-12-12T10:42:47.931Z,8.15
2023-12-12T10:45:17.160Z,7.97
2023-12-12T10:47:48.882Z,8.05
2023-12-12T10:50:18.045Z,7.18
2023-12-12T10:52:47.505Z,9.73
2023-12-12T10:55:16.702Z,8.98
2023-12-12T10:57:46.696Z,10.25
2023-12-12T11:00:18.452Z,9.15
2023-12-12T11:02:49.036Z,9.93
2023-12-12T11:05:18.842Z,8.20
2023-12-12T11:07:49.288Z,8.65
2023-12-12T11:10:21.285Z,8.88
2023-12-12T11:12:53.334Z,9.10
2023-12-12T11:15:21.813Z,7.47
2023-12-12T11:17:51.851Z,8.18
2023-12-12T11:20:21.174Z,7.78
2023-12-12T11:22:52.129Z,6.57
2023-12-12T11:25:22.095Z,8.43
2023-12-12T11:27:55.378Z,7.03
2023-12-12T11:30:33.225Z,8.63
2023-12-12T11:33:02.191Z,7.82
2023-12-12T11:35:32.817Z,7.72
2023-12-12T11:38:06.406Z,6.68
2023-12-12T11:40:35.776Z,6.80
2023-12-12T11:43:20.956Z,6.10
2023-12-12T11:45:49.168Z,7.43
2023-12-12T11:48:17.425Z,6.50
2023-12-12T11:50:47.314Z,5.93
2023-12-12T11:53:44.688Z,6.32
2023-12-12T11:56:16.899Z,7.25
2023-12-12T11:58:44.998Z,6.38
2023-12-12T12:01:21.169Z,6.47
2023-12-12T12:03:49.379Z,6.63
2023-12-12T12:06:17.298Z,6.60
2023-12-12T12:08:45.870Z,7.72
2023-12-12T12:11:13.925Z,6.18
2023-12-12T12:13:43.301Z,8.63
2023-12-12T12:16:12.094Z,6.00
2023-12-12T12:18:40.424Z,6.47
2023-12-12T12:21:09.266Z,7.18
2023-12-12T12:23:41.927Z,6.43
2023-12-12T12:26:10.049Z,5.70
2023-12-12T12:28:38.254Z,6.40
2023-12-12T12:31:07.113Z,6.82
2023-12-12T12:33:37.241Z,6.28
2023-12-12T12:36:06.299Z,7.05
2023-12-12T12:38:35.271Z,6.40
2023-12-12T12:41:03.282Z,7.00
2023-12-12T12:43:31.405Z,5.32
2023-12-12T12:46:00.287Z,5.63
2023-12-12T12:48:31.248Z,6.55
2023-12-12T12:50:59.674Z,6.17
2023-12-12T12:53:28.037Z,6.30
2023-12-12T12:55:56.097Z,8.95
2023-12-12T12:58:24.075Z,8.45
2023-12-12T13:00:51.946Z,5.90
2023-12-12T13:03:20.321Z,7.50
2023-12-12T13:05:48.611Z,8.27
2023-12-12T13:08:18.619Z,10.02
2023-12-12T13:10:50.610Z,9.55
2023-12-12T13:13:22.991Z,6.63
2023-12-12T13:15:51.638Z,8.27
2023-12-12T13:18:20.023Z,9.25
2023-12-12T13:20:49.028Z,6.82
2023-12-12T13:23:17.426Z,6.93
2023-12-12T13:25:46.041Z,6.15
2023-12-12T13:28:14.306Z,6.18
2023-12-12T13:30:42.194Z,7.03
2023-12-12T13:33:13.237Z,6.88
2023-12-12T13:35:41.564Z,6.30
2023-12-12T13:38:09.607Z,7.07
2023-12-12T13:40:39.410Z,5.90
2023-12-12T13:43:07.707Z,6.28
2023-12-12T13:45:37.789Z,9.55
2023-12-12T13:48:06.275Z,6.38
2023-12-12T13:50:34.959Z,6.20
2023-12-12T13:53:03.008Z,6.50
2023-12-12T13:55:30.886Z,6.35
2023-12-12T13:57:58.972Z,7.15
2023-12-12T14:00:28.585Z,7.53
2023-12-12T14:02:56.632Z,6.75
2023-12-12T14:05:27.025Z,6.95
2023-12-12T14:07:57.243Z,7.25
2023-12-12T14:10:25.564Z,6.95
2023-12-12T14:12:53.604Z,6.63
2023-12-12T14:15:21.504Z,9.02
2023-12-12T14:17:49.596Z,7.35
2023-12-12T14:20:17.653Z,7.30
2023-12-12T14:22:52.552Z,9.13
2023-12-12T14:25:25.677Z,7.72
2023-12-12T14:27:53.757Z,9.02
2023-12-12T14:30:28.359Z,8.68
2023-12-12T14:33:00.253Z,8.32
2023-12-12T14:35:30.358Z,9.13
2023-12-12T14:37:58.463Z,8.50
2023-12-12T14:40:27.386Z,8.85
2023-12-12T14:42:55.454Z,8.68
2023-12-12T14:45:23.576Z,8.85
2023-12-12T14:47:51.523Z,8.63
2023-12-12T14:50:20.610Z,9.05
2023-12-12T14:52:48.597Z,9.13
2023-12-12T14:55:16.637Z,9.68
2023-12-12T14:57:44.917Z,8.75
2023-12-12T15:00:23.672Z,8.48
2023-12-12T15:02:55.078Z,8.35
2023-12-12T15:05:23.280Z,10.10
2023-12-12T15:07:51.366Z,9.98
2023-12-12T15:10:19.691Z,10.68
2023-12-12T15:12:47.673Z,9.70
2023-12-12T15:15:15.722Z,10.10
2023-12-12T15:17:43.888Z,9.38
2023-12-12T15:20:12.994Z,8.57
2023-12-12T15:22:41.692Z,9.82
2023-12-12T15:25:21.556Z,11.05
2023-12-12T15:28:22.982Z,9.73
2023-12-12T15:30:43.933Z,10.95
2023-12-12T15:33:11.841Z,13.65
2023-12-12T15:35:40.247Z,11.82
2023-12-12T15:38:08.608Z,12.95
2023-12-12T15:40:37.519Z,12.75
2023-12-12T15:43:09.903Z,11.75
2023-12-12T15:45:38.101Z,13.98
2023-12-12T15:48:06.437Z,13.60
2023-12-12T15:50:34.633Z,11.77
2023-12-12T15:53:02.448Z,13.18
2023-12-12T15:55:31.406Z,11.90
2023-12-12T15:57:59.612Z,12.95
2023-12-12T16:00:27.552Z,12.32
2023-12-12T16:02:55.794Z,14.77
2023-12-12T16:05:24.055Z,12.63
2023-12-12T16:07:52.508Z,13.23
2023-12-12T16:10:21.621Z,20.90
2023-12-12T16:12:49.701Z,13.00
2023-12-12T16:15:17.478Z,12.40
2023-12-12T16:17:46.352Z,14.02
2023-12-12T16:20:14.438Z,13.40
2023-12-12T16:22:42.562Z,13.27
2023-12-12T16:25:11.581Z,11.43
2023-12-12T16:27:43.825Z,14.25
2023-12-12T16:30:12.619Z,13.93
2023-12-12T16:32:41.308Z,12.23
2023-12-12T16:35:09.420Z,15.40
2023-12-12T16:37:38.056Z,12.45
2023-12-12T16:40:07.535Z,12.60
2023-12-12T16:42:35.680Z,13.90
2023-12-12T16:45:03.991Z,11.90
2023-12-12T16:47:31.990Z,13.70
2023-12-12T16:49:59.864Z,11.60
2023-12-12T16:52:28.052Z,12.18
2023-12-12T16:54:55.887Z,12.25
2023-12-12T16:57:23.930Z,11.82
2023-12-12T16:59:52.106Z,11.85
2023-12-12T17:02:21.352Z,15.65
2023-12-12T17:04:50.211Z,13.18
2023-12-12T17:07:18.330Z,14.30
2023-12-12T17:09:46.423Z,15.05
2023-12-12T17:12:14.810Z,15.52
2023-12-12T17:14:42.725Z,15.75
2023-12-12T17:17:10.942Z,15.52
2023-12-12T17:19:38.938Z,15.43
2023-12-12T17:22:07.121Z,14.35
2023-12-12T17:24:37.253Z,14.57
2023-12-12T17:27:05.282Z,14.77
2023-12-12T17:29:33.997Z,15.70
2023-12-12T17:32:02.986Z,15.32
2023-12-12T17:34:31.045Z,16.00
2023-12-12T17:36:58.969Z,16.00
2023-12-12T17:39:26.923Z,15.98
2023-12-12T17:41:54.927Z,19.10
2023-12-12T17:44:23.620Z,15.95
2023-12-12T17:46:52.376Z,16.27
2023-12-12T17:49:20.438Z,16.17
2023-12-12T17:51:48.751Z,16.65
2023-12-12T17:54:17.123Z,17.05
2023-12-12T17:56:44.980Z,16.38
2023-12-12T17:59:14.719Z,15.82
2023-12-12T18:01:43.406Z,14.68
2023-12-12T18:04:11.662Z,16.85
2023-12-12T18:06:40.263Z,16.05
2023-12-12T18:09:08.926Z,17.83
2023-12-12T18:11:36.897Z,18.55
2023-12-12T18:14:05.589Z,16.20
2023-12-12T18:16:34.194Z,16.30
2023-12-12T18:19:04.714Z,20.67
2023-12-12T18:21:33.234Z,16.92
2023-12-12T18:24:01.249Z,17.48
2023-12-12T18:26:32.368Z,16.30
2023-12-12T18:29:01.877Z,18.05
2023-12-12T18:31:33.204Z,21.80
2023-12-12T18:34:02.643Z,16.17
2023-12-12T18:36:31.003Z,16.50
2023-12-12T18:38:58.949Z,17.15
2023-12-12T18:41:27.753Z,17.30
2023-12-12T18:43:56.191Z,16.58
2023-12-12T18:46:24.444Z,16.35
2023-12-12T18:48:52.865Z,18.73
2023-12-12T18:51:20.970Z,15.65
2023-12-12T18:53:49.874Z,23.05
2023-12-12T18:56:17.794Z,18.45
